Terminal Aerodrome Forecast
Issued by NWS Cleveland, OH

Home | Current Version | Previous Version | Text Only | Print | Product List | Glossary On
Versions: 1 2 3 4 5 6 7 8 9 10 11 12 13 14 15 16
000
FTUS41 KCLE 012000 AAA
TAFMFD
TAF AMD
KMFD 012036Z 0121/0218 20003KT P6SM VCTS SCT040CB BKN100
     FM012300 03004KT P6SM BKN050
     FM020300 18004KT P6SM VCSH SCT025 OVC050=

USA.gov is the U.S. government's official web portal to all federal, state and local government web resources and services.